Pembroke Pines, Florida
Current Conditions -  °F | °C
As of 4:53 AM on Saturday 25 Oct 2014 (Local Time) from KHWO Reporting Station
Clear Clear  
Wind Chill: 69°   Ceiling: Unl
Heat Index: 69°   Visibility: 10mi
Dew Point: 63°   Wind: 8mph
Humidity: 81%   Direction: 340°NNW
Pressure: 29.87"   Gusts: NA
Location:  26.01°N, 80.28°W
Report Text: KHWO 250853Z AUTO 34007KT 10SM CLR 21/17 A2987 RMK AO2 SLP113 T02060172 55005
Loading
Personal Weather Stations






























Interactive Weather Map New forecast layout! Learn more

10-Day Weather Forecast

Advertisements
Track Severe Weather on mobile